Happy Valentine's Day! 

Flight Track Log - Related Links

Times and Time Zones

All times are in EDT time to prevent confusion due to time zone crossing. See the SWA4792 flight status page for this flight to view local times or setup timezone preferences in your user account.


Time Position Orientation Groundspeed Altitude Reporting Facility
EDT Latitude Longitude Course Direction KTS MPH feet Rate Location/Type
Sun 06:25:52 PM 27.9833 -82.5333 360° North 150 173 500  Level Tampa TRACON
Sun 06:27:28 PM 28.0833 -82.5333 360° North 224 258 4,500 2,812 Climbing Tampa TRACON
Sun 06:29:19 PM 28.1997 -82.5914 336° Northwest 274 315 10,200 2,809 Climbing Miami Center
Sun 06:30:21 PM 28.2803 -82.6369 334° Northwest 324 373 12,600 2,661 Climbing Miami Center
Sun 06:31:23 PM 28.3681 -82.6889 332° Northwest 349 402 15,700 3,000 Climbing Miami Center
Sun 06:32:25 PM 28.4594 -82.7425 333° Northwest 365 420 18,800 2,683 Climbing Miami Center
Sun 06:33:26 PM 28.5542 -82.7978 333° Northwest 381 438 21,200 2,390 Climbing Miami Center
Sun 06:34:28 PM 28.6794 -82.8347 345° North 415 478 23,700 2,323 Climbing Miami Center
Sun 06:35:30 PM 28.7953 -82.8614 349° North 423 487 26,000 2,091 Climbing Miami Center
Sun 06:36:40 PM 28.9306 -82.9233 338° Northwest 419 482 28,300 1,938 Climbing Jacksonville Center
Sun 06:37:40 PM 29.0328 -83.0067 325° Northwest 427 491 30,200 2,000 Climbing Jacksonville Center
Sun 06:38:40 PM 29.1369 -83.0900 325° Northwest 449 517 32,300 1,950 Climbing Jacksonville Center
Sun 06:39:40 PM 29.2392 -83.1686 326° Northwest 455 524 34,100 1,600 Climbing Jacksonville Center
Sun 06:40:40 PM 29.3453 -83.2522 326° Northwest 455 524 35,500 1,450 Climbing Jacksonville Center
Sun 06:41:40 PM 29.4517 -83.3361 326° Northwest 455 524 37,000 1,700 Climbing Jacksonville Center
Sun 06:42:40 PM 29.5578 -83.4203 325° Northwest 455 524 38,900 1,500 Climbing Jacksonville Center
Sun 06:43:40 PM 29.6575 -83.4997 325° Northwest 455 524 40,000 550 Climbing Jacksonville Center
Sun 06:44:40 PM 29.7594 -83.5817 325° Northwest 444 511 40,000  Level Jacksonville Center
Sun 06:45:40 PM 29.8633 -83.6614 326° Northwest 444 511 40,000  Level Jacksonville Center
Sun 06:46:40 PM 29.9528 -83.7317 326° Northwest 444 511 40,000  Level Jacksonville Center
Sun 06:47:40 PM 30.0503 -83.8117 325° Northwest 444 511 40,000  Level Jacksonville Center
Sun 06:48:40 PM 30.1500 -83.8894 326° Northwest 444 511 40,000  Level Jacksonville Center
Sun 06:49:40 PM 30.2494 -83.9697 325° Northwest 444 511 40,000  Level Jacksonville Center
Sun 06:50:40 PM 30.3469 -84.0481 325° Northwest 444 511 40,000  Level Jacksonville Center
Sun 06:51:40 PM 30.4464 -84.1286 325° Northwest 444 511 40,000  Level Jacksonville Center
Sun 06:52:40 PM 30.5417 -84.2047 325° Northwest 438 504 40,000  Level Jacksonville Center
Sun 06:53:40 PM 30.6472 -84.2931 324° Northwest 428 493 40,000  Level Jacksonville Center
Sun 06:54:40 PM 30.7422 -84.3694 325° Northwest 428 493 40,000  Level Jacksonville Center
Sun 06:55:40 PM 30.8394 -84.4483 325° Northwest 428 493 40,000  Level Jacksonville Center
Sun 06:56:40 PM 30.9367 -84.5300 324° Northwest 428 493 40,000 -100 Level Jacksonville Center
Sun 06:57:40 PM 31.0317 -84.6067 325° Northwest 428 493 39,800 -850 Descending Jacksonville Center
Sun 06:58:40 PM 31.1286 -84.6861 325° Northwest 428 493 38,300 -1,415 Descending Jacksonville Center
Sun 07:01:12 PM 31.3722 -84.8900 324° Northwest 412 474 34,800 -1,217 Descending Atlanta Center
Sun 07:02:12 PM 31.4739 -84.9714 326° Northwest 418 481 34,000 -400 Descending Atlanta Center
Sun 07:03:12 PM 31.5733 -85.0528 325° Northwest 428 493 34,000  Level Atlanta Center
Sun 07:04:12 PM 31.6708 -85.1319 325° Northwest 435 501 34,000 -200 Level Atlanta Center
Sun 07:05:12 PM 31.7703 -85.2139 325° Northwest 435 501 33,600 -700 Descending Atlanta Center
Sun 07:06:12 PM 31.8697 -85.2958 325° Northwest 435 501 32,600 -1,750 Descending Atlanta Center
Sun 07:07:12 PM 31.9711 -85.3831 324° Northwest 440 506 30,100 -2,450 Descending Atlanta Center
Sun 07:08:12 PM 32.0722 -85.4653 325° Northwest 445 512 27,700 -2,250 Descending Atlanta Center
Sun 07:09:12 PM 32.1675 -85.5453 325° Northwest 440 506 25,600 -2,150 Descending Atlanta Center
Sun 07:10:12 PM 32.2561 -85.6231 323° Northwest 424 488 23,400 -2,350 Descending Atlanta Center
Sun 07:11:12 PM 32.3533 -85.7033 325° Northwest 401 461 20,900 -2,100 Descending Atlanta Center
Sun 07:12:12 PM 32.4192 -85.7611 323° Northwest 388 447 19,200 -1,450 Descending Atlanta Center
Sun 07:13:12 PM 32.5181 -85.8469 324° Northwest 375 432 18,000 -600 Descending Atlanta Center
Sun 07:14:12 PM 32.6006 -85.9128 326° Northwest 368 423 18,000  Level Atlanta Center
Sun 07:15:12 PM 32.6789 -85.9833 323° Northwest 357 411 18,000  Level Atlanta Center
Sun 07:16:12 PM 32.7592 -86.0494 325° Northwest 357 411 18,000  Level Atlanta Center
Sun 07:17:12 PM 32.8375 -86.1181 324° Northwest 357 411 18,000  Level Atlanta Center
Sun 07:17:46 PM 32.8806 -86.1636 318° Northwest 353 406 18,000 -400 Level Atlanta Center
Sun 07:18:12 PM 32.9156 -86.1842 334° Northwest 357 411 17,600 -1,636 Descending Atlanta Center
Sun 07:18:41 PM 32.9525 -86.2222 319° Northwest 347 399 16,500 -2,100 Descending Atlanta Center
Sun 07:19:12 PM 32.9917 -86.2531 327° Northwest 352 405 15,500 -2,000 Descending Atlanta Center
Sun 07:19:35 PM 33.0161 -86.2783 319° Northwest 337 388 14,700 -2,100 Descending Atlanta Center
Sun 07:20:12 PM 33.0678 -86.3169 328° Northwest 341 392 13,400 -2,164 Descending Atlanta Center
Sun 07:20:36 PM 33.0964 -86.3522 314° West 333 383 12,500 -1,900 Descending Atlanta Center
Sun 07:21:12 PM 33.1394 -86.3833 329° Northwest 336 387 11,500 -1,900 Descending Atlanta Center
Sun 07:21:36 PM 33.1725 -86.4114 325° Northwest 322 371 10,600 -1,300 Descending Atlanta Center
Sun 07:22:12 PM 33.2181 -86.4250 346° North 323 372 10,200 -885 Descending Atlanta Center
Sun 07:22:37 PM 33.2489 -86.4458 331° Northwest 285 328 9,700 -1,300 Descending Atlanta Center
Sun 07:23:12 PM 33.2906 -86.4594 345° North 297 342 8,900 -1,700 Descending Atlanta Center
Sun 07:23:37 PM 33.3214 -86.4775 334° Northwest 273 314 8,000 -1,700 Descending Atlanta Center
Sun 07:24:12 PM 33.3567 -86.4861 348° North 290 334 7,200 -1,770 Descending Atlanta Center
Sun 07:24:38 PM 33.3917 -86.5069 334° Northwest 271 312 6,200 -1,900 Descending Atlanta Center
Sun 07:25:12 PM 33.4269 -86.5178 346° North 278 320 5,300 -1,967 Descending Atlanta Center
Sun 07:25:39 PM 33.4619 -86.5389 333° Northwest 272 313 4,200 -1,800 Descending Atlanta Center
Sun 07:26:12 PM 33.4972 -86.5497 346° North 273 314 3,500 -1,300 Descending Atlanta Center
Sun 07:26:39 PM 33.5322 -86.5733 331° Northwest 260 299 2,900 -600 Descending Atlanta Center
Sun 07:27:12 PM 33.5592 -86.5889 334° Northwest 261 300 2,900  Level Atlanta Center
Sun 07:27:40 PM 33.5794 -86.6194 309° West 185 213 2,900 -505 Level Atlanta Center
Sun 07:28:47 PM 33.6053 -86.6728 300° West 158 182 2,100 -756 Descending Atlanta Center
Sun 07:29:47 PM 33.5900 -86.7094 243° Southwest 117 135 1,300 -800 Descending Atlanta Center
Sun 07:31:00 PM 33.5639 -86.7523 270° West  Level Estimated
Sun 07:38:00 PM 33.5639 -86.7523 270° West  Level Estimated
Sun 07:39:00 PM 33.5639 -86.7523 172° South  Level Estimated

Login

Don't have an account? Register now (free) for customized features, flight alerts, and more!